Aérodrome :
LOGIN :

S'inscrire | Disclaimer

   EN    FR    IT 

 










Légende :    VFR   VFR Marginal   IFR   IFR Intensif   IFR Très Intensif
Visi : 
Plafond : 
>= 8 km
>= 3000ft
5 à 8 km
1000 à 3000 ft
1500m à 5 km
500 à 1000 ft
800 à 1500m
200 à 500 ft
< 800m
< 200 ft
Symboles :   Orages  Brouillard  Fortes neiges  Fortes précipitations  Vent > 20 kt
SIGMETs :   Divers  Orages  Givrage  Turbulence  Onde Orograph.  Cendres Volcan.






- Altitude de l'aérodrome : 405 ft
- Code IATA : ODH


EGVO - RAF Odiham

DERNIER METAR :
  • 281350Z 18018KT 9999 FEW021 BKN050 BKN250 16/12 Q1014 TEMPO 6000 SHRA BKN020CB RMK BLU TEMPO WHT

METARs EXPIRÉS :
  • 281320Z 18014KT 9999 FEW021 BKN050 16/13 Q1014 TEMPO 6000 SHRA BKN020CB RMK BLU TEMPO WHT
  • 281250Z 16016KT 9999 FEW018CB SCT023 16/12 Q1015 TEMPO 6000 SHRA RMK WHT TEMPO WHT
  • 281220Z 17016KT 9999 FEW020 FEW022CB SCT070 BKN250 16/13 Q1015 TEMPO 6000 -SHRA SCT020 RMK BLU TEMPO WHT
  • 281150Z 18014KT 9999 5000NE VCSH SCT022CB 15/12 Q1015 TEMPO 9999 NSW SCT025 RMK WHT TEMPO BLU
  • 281136Z 17015KT 9999 5000SE SHRA SCT020CB SCT030 15/11 Q1015 BECMG 9999 NSW SCT030 RMK WHT BECMG BLU
  • 281120Z 17016KT 9999 VCSH SCT022TCU SCT026 17/12 Q1015 TEMPO 7000 -SHRA RMK WHT TEMPO WHT

TAF TAF EGVO
Valide du 28 à 12h jusqu'au 29 à 00h UTC


281030Z 2812/2824 20012KT 9999 FEW030
TEMPO 2812/2824 6000 SHRA BKN020CB
PROB30
TEMPO 2812/2821 3000 +SHRA
TEMPO 2814/2821 20017G27KT



MET'MAP, la Météo Aéronautique d'un coup d'oeil ! - Copyright ORBIFLY Décembre 2007 - Disclaimer

ORBIFLY MET'MAP TEAM :

Programmation & Développement : Alexandra Zaïnal
Sur une idée originale de : Baudouin d'Aumeries
Assistance à la programmation : Marc-Olivier Méhu
Soutien technique & logistique : Manuel Goepfert

Contact : metmap@orbifly.com




SOURCES & CREDITS :

   NOAA